sensor_id;sensor_type;location;lat;lon;timestamp;P1;durP1;ratioP1;P2;durP2;ratioP2
63882;SDS011;50047;50.596;30.466;2023-07-13T00:02:01;5.10;;;2.80;;
63882;SDS011;50047;50.596;30.466;2023-07-13T00:04:29;4.80;;;3.20;;
63882;SDS011;50047;50.596;30.466;2023-07-13T00:06:59;6.40;;;2.70;;
63882;SDS011;50047;50.596;30.466;2023-07-13T00:09:26;5.00;;;3.10;;
63882;SDS011;50047;50.596;30.466;2023-07-13T00:11:54;5.20;;;2.80;;
63882;SDS011;50047;50.596;30.466;2023-07-13T00:14:24;5.80;;;3.20;;
63882;SDS011;50047;50.596;30.466;2023-07-13T00:16:52;5.80;;;3.30;;
63882;SDS011;50047;50.596;30.466;2023-07-13T00:19:20;4.20;;;2.90;;
63882;SDS011;50047;50.596;30.466;2023-07-13T00:21:49;6.40;;;3.00;;
63882;SDS011;50047;50.596;30.466;2023-07-13T00:24:17;5.40;;;2.80;;
63882;SDS011;50047;50.596;30.466;2023-07-13T00:26:49;6.50;;;3.20;;
63882;SDS011;50047;50.596;30.466;2023-07-13T00:29:16;5.10;;;3.00;;
63882;SDS011;50047;50.596;30.466;2023-07-13T00:31:43;7.70;;;2.80;;
63882;SDS011;50047;50.596;30.466;2023-07-13T00:34:11;6.70;;;2.90;;
63882;SDS011;50047;50.596;30.466;2023-07-13T00:36:39;4.00;;;2.70;;
63882;SDS011;50047;50.596;30.466;2023-07-13T00:39:06;6.20;;;2.90;;
63882;SDS011;50047;50.596;30.466;2023-07-13T00:41:33;3.50;;;2.50;;
63882;SDS011;50047;50.596;30.466;2023-07-13T00:44:00;7.90;;;2.90;;
63882;SDS011;50047;50.596;30.466;2023-07-13T00:46:30;4.20;;;2.30;;
63882;SDS011;50047;50.596;30.466;2023-07-13T00:48:59;2.80;;;2.00;;
63882;SDS011;50047;50.596;30.466;2023-07-13T00:51:34;3.10;;;2.00;;
63882;SDS011;50047;50.596;30.466;2023-07-13T00:54:09;4.60;;;2.20;;
63882;SDS011;50047;50.596;30.466;2023-07-13T00:56:40;12.00;;;2.20;;
63882;SDS011;50047;50.596;30.466;2023-07-13T00:59:10;3.20;;;2.00;;
63882;SDS011;50047;50.596;30.466;2023-07-13T01:01:41;3.60;;;2.40;;
63882;SDS011;50047;50.596;30.466;2023-07-13T01:04:08;6.70;;;2.50;;
63882;SDS011;50047;50.596;30.466;2023-07-13T01:06:38;2.50;;;1.80;;
63882;SDS011;50047;50.596;30.466;2023-07-13T01:09:06;3.70;;;2.20;;
63882;SDS011;50047;50.596;30.466;2023-07-13T01:11:34;4.60;;;2.10;;
63882;SDS011;50047;50.596;30.466;2023-07-13T01:14:03;2.90;;;1.90;;
63882;SDS011;50047;50.596;30.466;2023-07-13T01:16:32;2.30;;;2.00;;
63882;SDS011;50047;50.596;30.466;2023-07-13T01:19:04;3.10;;;2.20;;
63882;SDS011;50047;50.596;30.466;2023-07-13T01:21:42;4.20;;;2.20;;
63882;SDS011;50047;50.596;30.466;2023-07-13T01:24:09;6.60;;;2.20;;
63882;SDS011;50047;50.596;30.466;2023-07-13T01:26:36;3.60;;;2.20;;
63882;SDS011;50047;50.596;30.466;2023-07-13T01:29:07;4.80;;;2.10;;
63882;SDS011;50047;50.596;30.466;2023-07-13T01:31:35;3.70;;;2.00;;
63882;SDS011;50047;50.596;30.466;2023-07-13T01:34:02;5.50;;;2.20;;
63882;SDS011;50047;50.596;30.466;2023-07-13T01:36:30;4.40;;;2.30;;
63882;SDS011;50047;50.596;30.466;2023-07-13T01:38:58;4.10;;;2.20;;
63882;SDS011;50047;50.596;30.466;2023-07-13T01:41:25;3.70;;;2.30;;
63882;SDS011;50047;50.596;30.466;2023-07-13T01:43:53;5.00;;;2.20;;
63882;SDS011;50047;50.596;30.466;2023-07-13T01:46:20;2.90;;;2.20;;
63882;SDS011;50047;50.596;30.466;2023-07-13T01:48:51;3.00;;;2.40;;
63882;SDS011;50047;50.596;30.466;2023-07-13T01:51:19;4.40;;;2.10;;
63882;SDS011;50047;50.596;30.466;2023-07-13T01:53:48;4.50;;;2.30;;
63882;SDS011;50047;50.596;30.466;2023-07-13T01:56:16;2.60;;;2.10;;
63882;SDS011;50047;50.596;30.466;2023-07-13T01:58:44;3.30;;;2.30;;
63882;SDS011;50047;50.596;30.466;2023-07-13T02:01:12;3.00;;;2.30;;
63882;SDS011;50047;50.596;30.466;2023-07-13T02:03:39;3.70;;;2.10;;
63882;SDS011;50047;50.596;30.466;2023-07-13T02:06:07;3.50;;;2.20;;
63882;SDS011;50047;50.596;30.466;2023-07-13T02:08:36;4.40;;;2.60;;
63882;SDS011;50047;50.596;30.466;2023-07-13T02:11:09;4.00;;;2.30;;
63882;SDS011;50047;50.596;30.466;2023-07-13T02:13:36;6.80;;;2.30;;
63882;SDS011;50047;50.596;30.466;2023-07-13T02:16:03;6.30;;;2.40;;
63882;SDS011;50047;50.596;30.466;2023-07-13T02:18:33;7.10;;;2.50;;
63882;SDS011;50047;50.596;30.466;2023-07-13T02:21:01;4.60;;;2.30;;
63882;SDS011;50047;50.596;30.466;2023-07-13T02:23:33;4.20;;;2.30;;
63882;SDS011;50047;50.596;30.466;2023-07-13T02:26:01;7.00;;;2.10;;
63882;SDS011;50047;50.596;30.466;2023-07-13T02:28:30;2.30;;;1.90;;
63882;SDS011;50047;50.596;30.466;2023-07-13T02:31:03;3.10;;;2.00;;
63882;SDS011;50047;50.596;30.466;2023-07-13T02:33:41;2.70;;;2.20;;
63882;SDS011;50047;50.596;30.466;2023-07-13T02:36:08;2.90;;;2.20;;
63882;SDS011;50047;50.596;30.466;2023-07-13T02:38:36;3.00;;;2.10;;
63882;SDS011;50047;50.596;30.466;2023-07-13T02:41:04;4.80;;;2.00;;
63882;SDS011;50047;50.596;30.466;2023-07-13T02:43:32;6.30;;;2.50;;
63882;SDS011;50047;50.596;30.466;2023-07-13T02:46:00;3.00;;;2.20;;
63882;SDS011;50047;50.596;30.466;2023-07-13T02:48:36;3.40;;;2.20;;
63882;SDS011;50047;50.596;30.466;2023-07-13T02:51:05;2.80;;;2.10;;
63882;SDS011;50047;50.596;30.466;2023-07-13T02:53:33;2.40;;;2.10;;
63882;SDS011;50047;50.596;30.466;2023-07-13T02:56:00;4.90;;;2.30;;
63882;SDS011;50047;50.596;30.466;2023-07-13T02:58:28;3.60;;;2.20;;
63882;SDS011;50047;50.596;30.466;2023-07-13T03:00:57;2.90;;;2.10;;
63882;SDS011;50047;50.596;30.466;2023-07-13T03:03:25;3.10;;;2.10;;
63882;SDS011;50047;50.596;30.466;2023-07-13T03:05:57;4.60;;;2.10;;
63882;SDS011;50047;50.596;30.466;2023-07-13T03:08:29;3.50;;;1.90;;
63882;SDS011;50047;50.596;30.466;2023-07-13T03:10:59;4.50;;;2.10;;
63882;SDS011;50047;50.596;30.466;2023-07-13T03:13:29;4.40;;;2.10;;
63882;SDS011;50047;50.596;30.466;2023-07-13T03:15:56;2.50;;;1.90;;
63882;SDS011;50047;50.596;30.466;2023-07-13T03:18:25;3.30;;;2.10;;
63882;SDS011;50047;50.596;30.466;2023-07-13T03:20:57;3.30;;;1.80;;
63882;SDS011;50047;50.596;30.466;2023-07-13T03:23:25;3.00;;;2.30;;
63882;SDS011;50047;50.596;30.466;2023-07-13T03:28:49;3.30;;;2.10;;
63882;SDS011;50047;50.596;30.466;2023-07-13T03:31:22;2.60;;;2.10;;
63882;SDS011;50047;50.596;30.466;2023-07-13T03:33:52;2.60;;;2.20;;
63882;SDS011;50047;50.596;30.466;2023-07-13T03:36:21;3.80;;;2.10;;
63882;SDS011;50047;50.596;30.466;2023-07-13T03:38:50;3.20;;;2.10;;
63882;SDS011;50047;50.596;30.466;2023-07-13T03:41:25;5.30;;;2.10;;
63882;SDS011;50047;50.596;30.466;2023-07-13T03:43:53;4.80;;;2.00;;
63882;SDS011;50047;50.596;30.466;2023-07-13T03:46:21;4.80;;;1.90;;
63882;SDS011;50047;50.596;30.466;2023-07-13T03:48:48;2.70;;;1.80;;
63882;SDS011;50047;50.596;30.466;2023-07-13T03:51:15;4.90;;;2.10;;
63882;SDS011;50047;50.596;30.466;2023-07-13T03:53:44;3.70;;;2.00;;
63882;SDS011;50047;50.596;30.466;2023-07-13T03:56:14;3.30;;;2.10;;
63882;SDS011;50047;50.596;30.466;2023-07-13T03:58:44;2.90;;;2.00;;
63882;SDS011;50047;50.596;30.466;2023-07-13T04:01:18;3.20;;;2.00;;
63882;SDS011;50047;50.596;30.466;2023-07-13T04:03:46;6.40;;;1.70;;
63882;SDS011;50047;50.596;30.466;2023-07-13T04:06:25;3.90;;;1.90;;
63882;SDS011;50047;50.596;30.466;2023-07-13T04:08:55;5.70;;;2.00;;
63882;SDS011;50047;50.596;30.466;2023-07-13T04:11:25;5.80;;;1.90;;
63882;SDS011;50047;50.596;30.466;2023-07-13T04:13:55;4.80;;;2.00;;
63882;SDS011;50047;50.596;30.466;2023-07-13T04:16:23;3.20;;;2.00;;
63882;SDS011;50047;50.596;30.466;2023-07-13T04:18:50;3.70;;;1.80;;
63882;SDS011;50047;50.596;30.466;2023-07-13T04:21:21;4.50;;;2.10;;
63882;SDS011;50047;50.596;30.466;2023-07-13T04:23:49;3.80;;;2.20;;
63882;SDS011;50047;50.596;30.466;2023-07-13T04:26:16;2.90;;;2.10;;
63882;SDS011;50047;50.596;30.466;2023-07-13T04:28:43;2.80;;;1.90;;
63882;SDS011;50047;50.596;30.466;2023-07-13T04:31:11;2.80;;;1.90;;
63882;SDS011;50047;50.596;30.466;2023-07-13T04:33:38;4.10;;;2.00;;
63882;SDS011;50047;50.596;30.466;2023-07-13T04:36:06;3.50;;;1.90;;
63882;SDS011;50047;50.596;30.466;2023-07-13T04:38:33;1.80;;;1.60;;
63882;SDS011;50047;50.596;30.466;2023-07-13T04:41:01;2.80;;;1.90;;
63882;SDS011;50047;50.596;30.466;2023-07-13T04:43:30;2.70;;;1.60;;
63882;SDS011;50047;50.596;30.466;2023-07-13T04:46:06;2.70;;;1.90;;
63882;SDS011;50047;50.596;30.466;2023-07-13T04:48:36;3.50;;;1.90;;
63882;SDS011;50047;50.596;30.466;2023-07-13T04:51:03;4.30;;;2.20;;
63882;SDS011;50047;50.596;30.466;2023-07-13T04:53:32;5.20;;;1.90;;
63882;SDS011;50047;50.596;30.466;2023-07-13T04:56:01;3.50;;;1.90;;
63882;SDS011;50047;50.596;30.466;2023-07-13T04:58:30;4.50;;;1.90;;
63882;SDS011;50047;50.596;30.466;2023-07-13T05:01:04;6.70;;;2.00;;
63882;SDS011;50047;50.596;30.466;2023-07-13T05:03:32;2.30;;;1.80;;
63882;SDS011;50047;50.596;30.466;2023-07-13T05:06:05;3.40;;;1.70;;
63882;SDS011;50047;50.596;30.466;2023-07-13T05:08:33;3.10;;;1.60;;
63882;SDS011;50047;50.596;30.466;2023-07-13T05:11:02;6.90;;;2.00;;
63882;SDS011;50047;50.596;30.466;2023-07-13T05:13:31;4.70;;;2.00;;
63882;SDS011;50047;50.596;30.466;2023-07-13T05:15:59;5.00;;;1.70;;
63882;SDS011;50047;50.596;30.466;2023-07-13T05:18:30;5.80;;;1.90;;
63882;SDS011;50047;50.596;30.466;2023-07-13T05:21:07;6.80;;;2.00;;
63882;SDS011;50047;50.596;30.466;2023-07-13T05:23:36;4.40;;;2.20;;
63882;SDS011;50047;50.596;30.466;2023-07-13T05:26:04;4.20;;;2.10;;
63882;SDS011;50047;50.596;30.466;2023-07-13T05:28:36;3.50;;;1.90;;
63882;SDS011;50047;50.596;30.466;2023-07-13T05:31:04;4.30;;;2.10;;
63882;SDS011;50047;50.596;30.466;2023-07-13T05:33:33;5.00;;;2.10;;
63882;SDS011;50047;50.596;30.466;2023-07-13T05:36:00;6.10;;;2.20;;
63882;SDS011;50047;50.596;30.466;2023-07-13T05:38:28;3.70;;;1.70;;
63882;SDS011;50047;50.596;30.466;2023-07-13T05:40:55;2.90;;;1.90;;
63882;SDS011;50047;50.596;30.466;2023-07-13T05:43:23;4.50;;;1.80;;
63882;SDS011;50047;50.596;30.466;2023-07-13T05:45:52;5.20;;;1.80;;
63882;SDS011;50047;50.596;30.466;2023-07-13T05:48:20;3.50;;;2.00;;
63882;SDS011;50047;50.596;30.466;2023-07-13T05:50:49;5.60;;;2.20;;
63882;SDS011;50047;50.596;30.466;2023-07-13T05:53:16;3.70;;;2.10;;
63882;SDS011;50047;50.596;30.466;2023-07-13T05:55:43;3.30;;;2.00;;
63882;SDS011;50047;50.596;30.466;2023-07-13T05:58:14;4.20;;;1.90;;
63882;SDS011;50047;50.596;30.466;2023-07-13T06:00:41;4.10;;;2.00;;
63882;SDS011;50047;50.596;30.466;2023-07-13T06:03:08;3.70;;;2.20;;
63882;SDS011;50047;50.596;30.466;2023-07-13T06:05:37;2.80;;;2.00;;
63882;SDS011;50047;50.596;30.466;2023-07-13T06:08:05;7.20;;;1.80;;
63882;SDS011;50047;50.596;30.466;2023-07-13T06:10:34;5.00;;;2.10;;
63882;SDS011;50047;50.596;30.466;2023-07-13T06:13:02;3.50;;;2.00;;
63882;SDS011;50047;50.596;30.466;2023-07-13T06:15:30;4.90;;;2.10;;
63882;SDS011;50047;50.596;30.466;2023-07-13T06:17:57;6.30;;;2.10;;
63882;SDS011;50047;50.596;30.466;2023-07-13T06:20:24;5.20;;;2.20;;
63882;SDS011;50047;50.596;30.466;2023-07-13T06:22:51;3.90;;;2.00;;
63882;SDS011;50047;50.596;30.466;2023-07-13T06:25:18;4.20;;;2.10;;
63882;SDS011;50047;50.596;30.466;2023-07-13T06:27:45;6.80;;;2.20;;
63882;SDS011;50047;50.596;30.466;2023-07-13T06:31:07;3.00;;;1.90;;
63882;SDS011;50047;50.596;30.466;2023-07-13T06:33:37;5.90;;;1.80;;
63882;SDS011;50047;50.596;30.466;2023-07-13T06:36:08;2.80;;;1.80;;
63882;SDS011;50047;50.596;30.466;2023-07-13T06:38:37;5.60;;;2.00;;
63882;SDS011;50047;50.596;30.466;2023-07-13T06:41:06;3.30;;;2.20;;
63882;SDS011;50047;50.596;30.466;2023-07-13T06:43:36;4.10;;;2.00;;
63882;SDS011;50047;50.596;30.466;2023-07-13T06:46:04;5.40;;;2.20;;
63882;SDS011;50047;50.596;30.466;2023-07-13T06:48:31;3.20;;;2.10;;
63882;SDS011;50047;50.596;30.466;2023-07-13T06:50:59;3.70;;;1.90;;
63882;SDS011;50047;50.596;30.466;2023-07-13T06:53:29;3.10;;;2.40;;
63882;SDS011;50047;50.596;30.466;2023-07-13T06:55:57;3.90;;;2.00;;
63882;SDS011;50047;50.596;30.466;2023-07-13T06:58:25;4.30;;;2.00;;
63882;SDS011;50047;50.596;30.466;2023-07-13T07:00:52;4.30;;;2.00;;
63882;SDS011;50047;50.596;30.466;2023-07-13T07:03:20;2.40;;;2.00;;
63882;SDS011;50047;50.596;30.466;2023-07-13T07:05:48;2.90;;;2.00;;
63882;SDS011;50047;50.596;30.466;2023-07-13T07:08:16;5.90;;;2.10;;
63882;SDS011;50047;50.596;30.466;2023-07-13T07:10:44;4.70;;;2.00;;
63882;SDS011;50047;50.596;30.466;2023-07-13T07:13:12;3.50;;;2.20;;
63882;SDS011;50047;50.596;30.466;2023-07-13T07:15:40;3.40;;;1.80;;
63882;SDS011;50047;50.596;30.466;2023-07-13T07:18:08;9.10;;;2.30;;
63882;SDS011;50047;50.596;30.466;2023-07-13T07:20:36;3.70;;;2.10;;
63882;SDS011;50047;50.596;30.466;2023-07-13T07:23:03;6.70;;;2.00;;
63882;SDS011;50047;50.596;30.466;2023-07-13T07:25:31;3.80;;;1.80;;
63882;SDS011;50047;50.596;30.466;2023-07-13T07:28:01;4.50;;;1.90;;
63882;SDS011;50047;50.596;30.466;2023-07-13T07:30:32;2.30;;;1.80;;
63882;SDS011;50047;50.596;30.466;2023-07-13T07:33:03;6.00;;;2.20;;
63882;SDS011;50047;50.596;30.466;2023-07-13T07:35:32;3.40;;;2.10;;
63882;SDS011;50047;50.596;30.466;2023-07-13T07:38:06;3.00;;;2.10;;
63882;SDS011;50047;50.596;30.466;2023-07-13T07:40:40;4.30;;;2.00;;
63882;SDS011;50047;50.596;30.466;2023-07-13T07:43:12;2.30;;;2.00;;
63882;SDS011;50047;50.596;30.466;2023-07-13T07:45:40;2.80;;;2.10;;
63882;SDS011;50047;50.596;30.466;2023-07-13T07:48:08;3.70;;;2.30;;
63882;SDS011;50047;50.596;30.466;2023-07-13T07:50:37;3.90;;;2.00;;
63882;SDS011;50047;50.596;30.466;2023-07-13T07:53:06;3.60;;;2.10;;
63882;SDS011;50047;50.596;30.466;2023-07-13T07:55:34;9.00;;;3.40;;
63882;SDS011;50047;50.596;30.466;2023-07-13T07:58:05;6.30;;;2.70;;
63882;SDS011;50047;50.596;30.466;2023-07-13T08:00:53;7.20;;;2.60;;
63882;SDS011;50047;50.596;30.466;2023-07-13T08:03:24;3.30;;;2.20;;
63882;SDS011;50047;50.596;30.466;2023-07-13T08:05:55;2.60;;;2.20;;
63882;SDS011;50047;50.596;30.466;2023-07-13T08:08:43;4.00;;;2.10;;
63882;SDS011;50047;50.596;30.466;2023-07-13T08:11:10;6.20;;;2.20;;
63882;SDS011;50047;50.596;30.466;2023-07-13T08:13:41;3.00;;;2.20;;
63882;SDS011;50047;50.596;30.466;2023-07-13T08:16:10;2.80;;;2.10;;
63882;SDS011;50047;50.596;30.466;2023-07-13T08:18:39;5.50;;;2.20;;
63882;SDS011;50047;50.596;30.466;2023-07-13T08:21:07;8.40;;;2.50;;
63882;SDS011;50047;50.596;30.466;2023-07-13T08:23:37;8.60;;;2.40;;
63882;SDS011;50047;50.596;30.466;2023-07-13T08:26:05;5.50;;;2.30;;
63882;SDS011;50047;50.596;30.466;2023-07-13T08:28:33;8.20;;;2.70;;
63882;SDS011;50047;50.596;30.466;2023-07-13T08:31:02;4.60;;;2.20;;
63882;SDS011;50047;50.596;30.466;2023-07-13T08:33:33;5.80;;;2.40;;
63882;SDS011;50047;50.596;30.466;2023-07-13T08:36:03;5.30;;;2.50;;
63882;SDS011;50047;50.596;30.466;2023-07-13T08:38:32;5.10;;;2.60;;
63882;SDS011;50047;50.596;30.466;2023-07-13T08:41:02;7.10;;;2.70;;
63882;SDS011;50047;50.596;30.466;2023-07-13T08:43:43;6.90;;;2.80;;
63882;SDS011;50047;50.596;30.466;2023-07-13T08:46:19;4.50;;;2.10;;
63882;SDS011;50047;50.596;30.466;2023-07-13T08:49:06;3.80;;;2.20;;
63882;SDS011;50047;50.596;30.466;2023-07-13T08:51:46;4.50;;;2.70;;
63882;SDS011;50047;50.596;30.466;2023-07-13T08:54:36;4.20;;;2.70;;
63882;SDS011;50047;50.596;30.466;2023-07-13T08:57:12;5.30;;;2.60;;
63882;SDS011;50047;50.596;30.466;2023-07-13T08:59:41;2.60;;;2.20;;
63882;SDS011;50047;50.596;30.466;2023-07-13T09:05:33;5.90;;;2.70;;
63882;SDS011;50047;50.596;30.466;2023-07-13T09:10:52;4.80;;;2.40;;
63882;SDS011;50047;50.596;30.466;2023-07-13T09:16:27;8.30;;;4.50;;
63882;SDS011;50047;50.596;30.466;2023-07-13T09:18:56;6.80;;;4.10;;
63882;SDS011;50047;50.596;30.466;2023-07-13T09:21:33;6.80;;;3.50;;
63882;SDS011;50047;50.596;30.466;2023-07-13T09:27:49;6.80;;;2.70;;
63882;SDS011;50047;50.596;30.466;2023-07-13T09:32:44;5.00;;;2.60;;
63882;SDS011;50047;50.596;30.466;2023-07-13T09:35:21;5.40;;;2.60;;
63882;SDS011;50047;50.596;30.466;2023-07-13T09:37:52;7.70;;;2.60;;
63882;SDS011;50047;50.596;30.466;2023-07-13T09:43:30;4.70;;;2.40;;
63882;SDS011;50047;50.596;30.466;2023-07-13T09:45:59;4.80;;;3.00;;
63882;SDS011;50047;50.596;30.466;2023-07-13T09:48:32;4.00;;;2.80;;
63882;SDS011;50047;50.596;30.466;2023-07-13T09:51:13;5.70;;;2.90;;
63882;SDS011;50047;50.596;30.466;2023-07-13T09:53:42;8.00;;;2.80;;
63882;SDS011;50047;50.596;30.466;2023-07-13T09:56:18;5.90;;;3.30;;
63882;SDS011;50047;50.596;30.466;2023-07-13T09:59:10;8.50;;;2.80;;
63882;SDS011;50047;50.596;30.466;2023-07-13T10:01:47;4.30;;;2.80;;
63882;SDS011;50047;50.596;30.466;2023-07-13T10:04:19;5.50;;;2.50;;
63882;SDS011;50047;50.596;30.466;2023-07-13T10:07:04;5.00;;;2.70;;
63882;SDS011;50047;50.596;30.466;2023-07-13T10:09:59;2.80;;;2.30;;
63882;SDS011;50047;50.596;30.466;2023-07-13T10:12:29;7.60;;;2.60;;
63882;SDS011;50047;50.596;30.466;2023-07-13T10:15:02;4.50;;;2.50;;
63882;SDS011;50047;50.596;30.466;2023-07-13T10:17:49;6.00;;;2.60;;
63882;SDS011;50047;50.596;30.466;2023-07-13T10:20:23;7.10;;;2.80;;
63882;SDS011;50047;50.596;30.466;2023-07-13T10:22:57;7.60;;;2.50;;
63882;SDS011;50047;50.596;30.466;2023-07-13T10:25:27;4.50;;;2.60;;
63882;SDS011;50047;50.596;30.466;2023-07-13T10:28:01;7.20;;;2.50;;
63882;SDS011;50047;50.596;30.466;2023-07-13T10:30:38;4.20;;;2.50;;
63882;SDS011;50047;50.596;30.466;2023-07-13T10:33:11;5.20;;;2.80;;
63882;SDS011;50047;50.596;30.466;2023-07-13T10:35:41;4.50;;;3.10;;
63882;SDS011;50047;50.596;30.466;2023-07-13T10:38:12;4.90;;;2.50;;
63882;SDS011;50047;50.596;30.466;2023-07-13T10:40:48;5.70;;;2.60;;
63882;SDS011;50047;50.596;30.466;2023-07-13T10:43:25;5.80;;;3.20;;
63882;SDS011;50047;50.596;30.466;2023-07-13T10:45:58;6.20;;;3.00;;
63882;SDS011;50047;50.596;30.466;2023-07-13T10:48:28;5.60;;;2.60;;
63882;SDS011;50047;50.596;30.466;2023-07-13T10:50:56;13.10;;;3.00;;
63882;SDS011;50047;50.596;30.466;2023-07-13T10:53:28;5.70;;;2.80;;
63882;SDS011;50047;50.596;30.466;2023-07-13T10:59:10;7.10;;;2.80;;
63882;SDS011;50047;50.596;30.466;2023-07-13T11:01:58;4.40;;;3.10;;
63882;SDS011;50047;50.596;30.466;2023-07-13T11:04:41;6.30;;;2.50;;
63882;SDS011;50047;50.596;30.466;2023-07-13T11:07:51;5.30;;;3.20;;
63882;SDS011;50047;50.596;30.466;2023-07-13T11:13:36;5.00;;;3.00;;
63882;SDS011;50047;50.596;30.466;2023-07-13T11:16:13;4.60;;;2.90;;
63882;SDS011;50047;50.596;30.466;2023-07-13T11:30:20;10.20;;;5.90;;
63882;SDS011;50047;50.596;30.466;2023-07-13T11:35:36;6.10;;;3.00;;
63882;SDS011;50047;50.596;30.466;2023-07-13T11:38:12;4.40;;;3.70;;
63882;SDS011;50047;50.596;30.466;2023-07-13T11:40:45;7.80;;;3.40;;
63882;SDS011;50047;50.596;30.466;2023-07-13T11:43:22;6.50;;;3.40;;
63882;SDS011;50047;50.596;30.466;2023-07-13T11:45:53;4.20;;;2.90;;
63882;SDS011;50047;50.596;30.466;2023-07-13T11:48:28;6.00;;;3.40;;
63882;SDS011;50047;50.596;30.466;2023-07-13T11:51:01;8.10;;;3.20;;
63882;SDS011;50047;50.596;30.466;2023-07-13T11:53:39;6.50;;;3.40;;
63882;SDS011;50047;50.596;30.466;2023-07-13T11:56:13;5.70;;;3.50;;
63882;SDS011;50047;50.596;30.466;2023-07-13T11:58:41;5.00;;;3.50;;
63882;SDS011;50047;50.596;30.466;2023-07-13T12:01:15;5.40;;;3.40;;
63882;SDS011;50047;50.596;30.466;2023-07-13T12:04:04;5.50;;;3.70;;
63882;SDS011;50047;50.596;30.466;2023-07-13T12:06:34;4.30;;;3.70;;
63882;SDS011;50047;50.596;30.466;2023-07-13T12:09:12;5.30;;;3.40;;
63882;SDS011;50047;50.596;30.466;2023-07-13T12:11:43;4.70;;;3.70;;
63882;SDS011;50047;50.596;30.466;2023-07-13T12:14:13;4.70;;;3.80;;
63882;SDS011;50047;50.596;30.466;2023-07-13T12:16:42;6.60;;;3.60;;
63882;SDS011;50047;50.596;30.466;2023-07-13T12:19:20;7.00;;;3.80;;
63882;SDS011;50047;50.596;30.466;2023-07-13T12:21:50;6.70;;;3.80;;
63882;SDS011;50047;50.596;30.466;2023-07-13T12:24:21;6.40;;;3.90;;
63882;SDS011;50047;50.596;30.466;2023-07-13T12:26:51;5.50;;;3.50;;
63882;SDS011;50047;50.596;30.466;2023-07-13T12:29:21;5.10;;;3.60;;
63882;SDS011;50047;50.596;30.466;2023-07-13T12:31:50;4.80;;;3.40;;
63882;SDS011;50047;50.596;30.466;2023-07-13T12:34:21;6.00;;;3.50;;
63882;SDS011;50047;50.596;30.466;2023-07-13T12:36:51;7.90;;;3.80;;
63882;SDS011;50047;50.596;30.466;2023-07-13T12:42:09;5.80;;;3.70;;
63882;SDS011;50047;50.596;30.466;2023-07-13T12:45:37;8.50;;;4.20;;
63882;SDS011;50047;50.596;30.466;2023-07-13T12:47:53;8.90;;;3.70;;
63882;SDS011;50047;50.596;30.466;2023-07-13T12:50:23;7.70;;;4.10;;
63882;SDS011;50047;50.596;30.466;2023-07-13T12:52:59;8.80;;;4.20;;
63882;SDS011;50047;50.596;30.466;2023-07-13T12:55:41;5.00;;;3.70;;
63882;SDS011;50047;50.596;30.466;2023-07-13T13:00:56;5.90;;;4.30;;
63882;SDS011;50047;50.596;30.466;2023-07-13T13:06:02;6.20;;;3.40;;
63882;SDS011;50047;50.596;30.466;2023-07-13T13:08:48;5.90;;;3.70;;
63882;SDS011;50047;50.596;30.466;2023-07-13T13:11:18;13.30;;;4.20;;
63882;SDS011;50047;50.596;30.466;2023-07-13T13:13:47;5.10;;;3.80;;
63882;SDS011;50047;50.596;30.466;2023-07-13T13:16:22;6.50;;;3.70;;
63882;SDS011;50047;50.596;30.466;2023-07-13T13:18:54;8.00;;;3.90;;
63882;SDS011;50047;50.596;30.466;2023-07-13T13:21:24;7.10;;;3.70;;
63882;SDS011;50047;50.596;30.466;2023-07-13T13:23:54;5.30;;;3.70;;
63882;SDS011;50047;50.596;30.466;2023-07-13T13:26:22;12.10;;;3.80;;
63882;SDS011;50047;50.596;30.466;2023-07-13T13:28:50;8.80;;;4.30;;
63882;SDS011;50047;50.596;30.466;2023-07-13T13:31:18;6.20;;;4.30;;
63882;SDS011;50047;50.596;30.466;2023-07-13T13:33:45;6.80;;;3.90;;
63882;SDS011;50047;50.596;30.466;2023-07-13T13:36:16;6.30;;;3.80;;
63882;SDS011;50047;50.596;30.466;2023-07-13T13:38:47;10.00;;;3.90;;
63882;SDS011;50047;50.596;30.466;2023-07-13T13:41:16;7.60;;;3.90;;
63882;SDS011;50047;50.596;30.466;2023-07-13T13:43:44;7.30;;;3.80;;
63882;SDS011;50047;50.596;30.466;2023-07-13T13:46:18;4.10;;;3.50;;
63882;SDS011;50047;50.596;30.466;2023-07-13T13:48:48;6.20;;;4.00;;
63882;SDS011;50047;50.596;30.466;2023-07-13T13:53:48;5.20;;;4.20;;
63882;SDS011;50047;50.596;30.466;2023-07-13T13:56:17;6.40;;;4.00;;
63882;SDS011;50047;50.596;30.466;2023-07-13T13:58:46;5.10;;;3.80;;
63882;SDS011;50047;50.596;30.466;2023-07-13T14:01:19;7.10;;;4.20;;
63882;SDS011;50047;50.596;30.466;2023-07-13T14:03:50;5.30;;;3.90;;
63882;SDS011;50047;50.596;30.466;2023-07-13T14:06:20;7.20;;;4.10;;
63882;SDS011;50047;50.596;30.466;2023-07-13T14:08:48;6.10;;;3.80;;
63882;SDS011;50047;50.596;30.466;2023-07-13T14:11:17;6.90;;;4.30;;
63882;SDS011;50047;50.596;30.466;2023-07-13T14:13:48;5.80;;;3.90;;
63882;SDS011;50047;50.596;30.466;2023-07-13T14:16:19;4.20;;;3.50;;
63882;SDS011;50047;50.596;30.466;2023-07-13T14:18:49;6.10;;;3.70;;
63882;SDS011;50047;50.596;30.466;2023-07-13T14:21:17;6.10;;;4.40;;
63882;SDS011;50047;50.596;30.466;2023-07-13T14:23:47;7.80;;;4.00;;
63882;SDS011;50047;50.596;30.466;2023-07-13T14:26:20;6.00;;;4.10;;
63882;SDS011;50047;50.596;30.466;2023-07-13T14:28:51;11.10;;;4.10;;
63882;SDS011;50047;50.596;30.466;2023-07-13T14:31:21;5.60;;;3.90;;
63882;SDS011;50047;50.596;30.466;2023-07-13T14:33:57;4.20;;;3.40;;
63882;SDS011;50047;50.596;30.466;2023-07-13T14:36:26;13.50;;;4.30;;
63882;SDS011;50047;50.596;30.466;2023-07-13T14:38:58;13.20;;;4.90;;
63882;SDS011;50047;50.596;30.466;2023-07-13T14:41:27;8.00;;;3.90;;
63882;SDS011;50047;50.596;30.466;2023-07-13T14:43:55;7.00;;;3.90;;
63882;SDS011;50047;50.596;30.466;2023-07-13T14:46:28;5.30;;;4.00;;
63882;SDS011;50047;50.596;30.466;2023-07-13T14:49:44;6.70;;;3.70;;
63882;SDS011;50047;50.596;30.466;2023-07-13T14:51:54;5.20;;;4.10;;
63882;SDS011;50047;50.596;30.466;2023-07-13T14:56:52;11.30;;;4.20;;
63882;SDS011;50047;50.596;30.466;2023-07-13T14:59:20;4.80;;;4.30;;
63882;SDS011;50047;50.596;30.466;2023-07-13T15:01:48;5.80;;;4.00;;
63882;SDS011;50047;50.596;30.466;2023-07-13T15:04:17;8.40;;;4.40;;
63882;SDS011;50047;50.596;30.466;2023-07-13T15:06:53;7.90;;;4.40;;
63882;SDS011;50047;50.596;30.466;2023-07-13T15:09:21;6.40;;;4.10;;
63882;SDS011;50047;50.596;30.466;2023-07-13T15:11:49;9.50;;;4.00;;
63882;SDS011;50047;50.596;30.466;2023-07-13T15:14:16;10.60;;;4.40;;
63882;SDS011;50047;50.596;30.466;2023-07-13T15:16:44;10.70;;;4.50;;
63882;SDS011;50047;50.596;30.466;2023-07-13T15:19:16;6.50;;;4.00;;
63882;SDS011;50047;50.596;30.466;2023-07-13T15:21:46;7.50;;;4.20;;
63882;SDS011;50047;50.596;30.466;2023-07-13T15:24:14;6.10;;;4.20;;
63882;SDS011;50047;50.596;30.466;2023-07-13T15:26:42;5.60;;;4.30;;
63882;SDS011;50047;50.596;30.466;2023-07-13T15:29:16;5.10;;;4.40;;
63882;SDS011;50047;50.596;30.466;2023-07-13T15:31:45;7.10;;;4.40;;
63882;SDS011;50047;50.596;30.466;2023-07-13T15:34:15;7.00;;;4.00;;
63882;SDS011;50047;50.596;30.466;2023-07-13T15:36:44;5.90;;;4.20;;
63882;SDS011;50047;50.596;30.466;2023-07-13T15:39:16;5.10;;;4.20;;
63882;SDS011;50047;50.596;30.466;2023-07-13T15:41:44;6.70;;;4.20;;
63882;SDS011;50047;50.596;30.466;2023-07-13T15:44:21;6.30;;;4.20;;
63882;SDS011;50047;50.596;30.466;2023-07-13T15:46:52;6.10;;;4.80;;
63882;SDS011;50047;50.596;30.466;2023-07-13T15:49:20;8.10;;;4.40;;
63882;SDS011;50047;50.596;30.466;2023-07-13T15:51:48;7.10;;;4.80;;